createdAt,value
2023-04-26T00:01:11.098Z,1.17
2023-04-26T00:03:37.999Z,1.42
2023-04-26T00:06:08.767Z,1.17
2023-04-26T00:08:35.834Z,1.65
2023-04-26T00:11:02.270Z,1.20
2023-04-26T00:13:28.695Z,1.50
2023-04-26T00:15:55.137Z,1.20
2023-04-26T00:18:21.764Z,1.33
2023-04-26T00:20:48.211Z,1.40
2023-04-26T00:23:14.649Z,1.50
2023-04-26T00:25:41.244Z,1.15
2023-04-26T00:28:07.695Z,1.10
2023-04-26T00:30:37.554Z,1.50
2023-04-26T00:33:04.073Z,1.40
2023-04-26T00:35:30.978Z,1.25
2023-04-26T00:37:57.516Z,1.60
2023-04-26T00:40:24.056Z,1.77
2023-04-26T00:42:57.684Z,1.98
2023-04-26T00:45:24.147Z,1.80
2023-04-26T00:47:51.322Z,1.60
2023-04-26T00:50:18.221Z,1.63
2023-04-26T00:52:47.134Z,1.50
2023-04-26T00:55:14.347Z,1.63
2023-04-26T00:57:40.983Z,1.45
2023-04-26T01:00:08.145Z,1.60
2023-04-26T01:02:34.951Z,1.80
2023-04-26T01:05:01.512Z,2.20
2023-04-26T01:07:27.982Z,1.85
2023-04-26T01:09:56.070Z,1.88
2023-04-26T01:12:24.320Z,1.60
2023-04-26T01:14:52.135Z,1.95
2023-04-26T01:17:20.060Z,1.67
2023-04-26T01:19:47.993Z,1.70
2023-04-26T01:22:14.473Z,2.17
2023-04-26T01:24:48.515Z,1.30
2023-04-26T01:27:14.939Z,1.65
2023-04-26T01:29:41.472Z,1.70
2023-04-26T01:32:07.978Z,1.73
2023-04-26T01:34:34.539Z,1.70
2023-04-26T01:37:01.555Z,1.77
2023-04-26T01:39:28.038Z,1.40
2023-04-26T01:41:54.645Z,1.60
2023-04-26T01:44:21.088Z,2.00
2023-04-26T01:46:47.609Z,1.38
2023-04-26T01:49:14.144Z,1.50
2023-04-26T01:51:40.738Z,1.33
2023-04-26T01:54:07.311Z,1.50
2023-04-26T01:56:33.747Z,1.60
2023-04-26T01:59:01.178Z,1.67
2023-04-26T02:01:27.764Z,1.60
2023-04-26T02:03:54.240Z,1.70
2023-04-26T02:06:21.413Z,1.90
2023-04-26T02:08:47.936Z,1.75
2023-04-26T02:11:14.330Z,1.90
2023-04-26T02:13:40.733Z,1.90
2023-04-26T02:16:07.854Z,1.75
2023-04-26T02:18:34.665Z,2.10
2023-04-26T02:21:01.118Z,2.10
2023-04-26T02:23:27.602Z,1.75
2023-04-26T02:25:54.053Z,2.03
2023-04-26T02:28:20.934Z,2.08
2023-04-26T02:30:47.369Z,2.17
2023-04-26T02:33:13.830Z,2.00
2023-04-26T02:35:40.702Z,2.28
2023-04-26T02:38:08.317Z,2.28
2023-04-26T02:40:35.323Z,2.00
2023-04-26T02:43:02.625Z,1.83
2023-04-26T02:45:29.147Z,1.83
2023-04-26T02:47:55.752Z,1.73
2023-04-26T02:50:22.682Z,1.70
2023-04-26T02:52:50.057Z,2.08
2023-04-26T02:55:16.489Z,1.88
2023-04-26T02:57:43.201Z,1.80
2023-04-26T03:00:13.797Z,1.70
2023-04-26T03:02:41.154Z,1.83
2023-04-26T03:05:09.426Z,2.22
2023-04-26T03:07:36.282Z,1.80
2023-04-26T03:10:02.956Z,1.85
2023-04-26T03:12:29.490Z,1.65
2023-04-26T03:14:56.338Z,1.70
2023-04-26T03:17:24.457Z,2.00
2023-04-26T03:19:50.961Z,1.52
2023-04-26T03:22:18.202Z,1.40
2023-04-26T03:24:44.843Z,1.75
2023-04-26T03:27:11.949Z,1.50
2023-04-26T03:29:38.982Z,1.60
2023-04-26T03:32:07.197Z,1.60
2023-04-26T03:34:33.798Z,2.03
2023-04-26T03:37:00.315Z,1.70
2023-04-26T03:39:26.818Z,1.88
2023-04-26T03:41:53.292Z,1.73
2023-04-26T03:44:19.753Z,1.60
2023-04-26T03:46:46.223Z,2.28
2023-04-26T03:49:12.701Z,2.00
2023-04-26T03:51:39.248Z,2.00
2023-04-26T03:54:06.151Z,2.42
2023-04-26T03:56:32.603Z,2.67
2023-04-26T03:58:59.606Z,2.20
2023-04-26T04:01:26.910Z,3.05
2023-04-26T04:03:53.893Z,2.60
2023-04-26T04:06:21.756Z,2.80
2023-04-26T04:08:48.241Z,3.35
2023-04-26T04:11:16.343Z,2.25
2023-04-26T04:13:43.405Z,2.67
2023-04-26T04:16:10.395Z,2.60
2023-04-26T04:18:37.026Z,2.35
2023-04-26T04:21:03.855Z,2.60
2023-04-26T04:23:30.417Z,2.60
2023-04-26T04:25:57.674Z,2.88
2023-04-26T04:28:24.124Z,2.53
2023-04-26T04:30:50.830Z,2.60
2023-04-26T04:33:17.839Z,2.13
2023-04-26T04:35:44.727Z,2.65
2023-04-26T04:38:11.250Z,2.40
2023-04-26T04:40:37.794Z,2.10
2023-04-26T04:43:04.396Z,1.95
2023-04-26T04:45:32.071Z,2.40
2023-04-26T04:48:00.143Z,2.75
2023-04-26T04:50:26.830Z,2.70
2023-04-26T04:52:53.361Z,2.97
2023-04-26T04:55:20.082Z,4.28
2023-04-26T04:57:46.539Z,5.38
2023-04-26T05:00:14.089Z,3.85
2023-04-26T05:02:46.474Z,5.30
2023-04-26T05:05:13.272Z,4.22
2023-04-26T05:07:39.783Z,3.55
2023-04-26T05:10:06.945Z,3.17
2023-04-26T05:12:33.715Z,3.63
2023-04-26T05:15:01.107Z,4.32
2023-04-26T05:17:27.721Z,5.78
2023-04-26T05:19:54.975Z,5.05
2023-04-26T05:22:22.264Z,4.68
2023-04-26T05:24:49.704Z,5.20
2023-04-26T05:27:16.269Z,4.15
2023-04-26T05:29:50.921Z,4.88
2023-04-26T05:32:30.086Z,4.28
2023-04-26T05:35:16.888Z,3.97
2023-04-26T05:37:44.310Z,3.83
2023-04-26T05:40:12.840Z,3.85
2023-04-26T05:42:40.158Z,4.07
2023-04-26T05:45:08.448Z,4.50
2023-04-26T05:47:34.990Z,4.50
2023-04-26T05:50:01.498Z,3.90
2023-04-26T05:52:28.347Z,4.00
2023-04-26T05:54:54.767Z,4.22
2023-04-26T05:57:21.445Z,4.20
2023-04-26T05:59:48.107Z,4.45
2023-04-26T06:02:15.560Z,3.97
2023-04-26T06:04:42.175Z,3.83
2023-04-26T06:07:12.964Z,4.03
2023-04-26T06:09:39.668Z,3.92
2023-04-26T06:12:06.218Z,3.67
2023-04-26T06:14:36.836Z,3.88
2023-04-26T06:17:07.511Z,4.30
2023-04-26T06:19:33.987Z,3.45
2023-04-26T06:22:00.473Z,3.55
2023-04-26T06:24:27.622Z,3.35
2023-04-26T06:26:54.173Z,2.78
2023-04-26T06:29:21.682Z,3.10
2023-04-26T06:31:48.569Z,2.90
2023-04-26T06:34:15.486Z,3.58
2023-04-26T06:36:42.509Z,3.42
2023-04-26T06:39:10.814Z,2.72
2023-04-26T06:41:38.552Z,2.03
2023-04-26T06:44:05.125Z,2.05
2023-04-26T06:46:31.593Z,2.30
2023-04-26T06:48:58.090Z,2.00
2023-04-26T06:51:25.286Z,2.13
2023-04-26T06:53:52.831Z,2.08
2023-04-26T06:56:19.512Z,1.75
2023-04-26T06:59:04.161Z,1.92
2023-04-26T07:01:33.877Z,2.03
2023-04-26T07:04:03.691Z,1.75
2023-04-26T07:06:34.128Z,1.80
2023-04-26T07:09:02.619Z,2.40
2023-04-26T07:11:29.108Z,2.28
2023-04-26T07:13:55.810Z,1.90
2023-04-26T07:16:22.672Z,2.33
2023-04-26T07:18:49.231Z,2.25
2023-04-26T07:21:16.280Z,2.40
2023-04-26T07:23:42.748Z,2.42
2023-04-26T07:26:11.080Z,2.35
2023-04-26T07:28:37.905Z,2.13
2023-04-26T07:31:06.549Z,3.75
2023-04-26T07:33:34.495Z,4.78
2023-04-26T07:36:01.544Z,4.82
2023-04-26T07:38:27.927Z,3.55
2023-04-26T07:40:55.418Z,3.60
2023-04-26T07:43:23.105Z,3.40
2023-04-26T07:45:49.541Z,3.17
2023-04-26T07:48:16.436Z,3.33
2023-04-26T07:50:42.867Z,2.95
2023-04-26T07:53:09.360Z,2.90
2023-04-26T07:55:37.311Z,2.83
2023-04-26T07:58:04.377Z,2.67
2023-04-26T08:00:31.037Z,2.65
2023-04-26T08:02:57.566Z,3.00
2023-04-26T08:05:24.469Z,2.83
2023-04-26T08:07:51.100Z,2.72
2023-04-26T08:10:17.629Z,2.95
2023-04-26T08:12:44.079Z,2.65
2023-04-26T08:15:11.234Z,3.58
2023-04-26T08:17:37.781Z,3.05
2023-04-26T08:20:09.370Z,3.08
2023-04-26T08:22:35.926Z,2.67
2023-04-26T08:25:02.385Z,2.78
2023-04-26T08:27:29.250Z,2.92
2023-04-26T08:29:55.760Z,1.90
2023-04-26T08:32:22.289Z,2.40
2023-04-26T08:34:49.044Z,2.85
2023-04-26T08:37:15.575Z,2.00
2023-04-26T08:39:42.013Z,2.30
2023-04-26T08:42:16.278Z,2.17
2023-04-26T08:44:44.239Z,2.20
2023-04-26T08:47:17.908Z,3.03
2023-04-26T08:49:48.670Z,2.38
2023-04-26T08:52:17.008Z,2.28
2023-04-26T08:54:46.704Z,2.13
2023-04-26T08:57:13.310Z,2.42
2023-04-26T08:59:39.792Z,2.03
2023-04-26T09:02:07.480Z,2.05
2023-04-26T09:04:34.293Z,2.05
2023-04-26T09:07:03.463Z,2.78
2023-04-26T09:09:38.889Z,2.22
2023-04-26T09:12:05.927Z,2.00
2023-04-26T09:14:32.457Z,1.98
2023-04-26T09:16:59.048Z,1.77
2023-04-26T09:19:45.168Z,2.05
2023-04-26T09:22:11.757Z,2.08
2023-04-26T09:24:48.270Z,1.95
2023-04-26T09:27:16.379Z,1.63
2023-04-26T09:30:06.681Z,1.65
2023-04-26T09:32:48.068Z,1.60
2023-04-26T09:35:33.339Z,1.70
2023-04-26T09:38:13.511Z,1.60
2023-04-26T09:40:50.811Z,1.45
2023-04-26T09:43:18.806Z,2.05
2023-04-26T09:45:51.449Z,1.50
2023-04-26T09:48:25.819Z,1.30
2023-04-26T09:50:54.518Z,1.88
2023-04-26T09:53:27.801Z,1.50
2023-04-26T09:56:07.768Z,1.60
2023-04-26T09:58:34.980Z,1.80
2023-04-26T10:01:03.649Z,1.98
2023-04-26T10:03:32.484Z,1.88
2023-04-26T10:05:58.986Z,2.10
2023-04-26T10:08:25.596Z,2.17
2023-04-26T10:10:52.808Z,1.63
2023-04-26T10:13:19.340Z,1.90
2023-04-26T10:15:47.354Z,1.52
2023-04-26T10:18:13.833Z,1.50
2023-04-26T10:20:43.264Z,1.77
2023-04-26T10:23:20.072Z,1.23
2023-04-26T10:25:47.031Z,1.67
2023-04-26T10:28:13.483Z,1.70
2023-04-26T10:30:59.854Z,1.80
2023-04-26T10:33:27.196Z,1.88
2023-04-26T10:36:02.957Z,1.70
2023-04-26T10:38:29.550Z,1.50
2023-04-26T10:40:56.849Z,1.30
2023-04-26T10:43:27.777Z,1.52
2023-04-26T10:45:56.745Z,1.50
2023-04-26T10:48:31.433Z,2.17
2023-04-26T10:51:12.179Z,1.20
2023-04-26T10:53:44.318Z,1.05
2023-04-26T10:56:11.260Z,1.10
2023-04-26T10:58:41.385Z,1.50
2023-04-26T11:01:16.331Z,1.20
2023-04-26T11:04:01.501Z,1.23
2023-04-26T11:06:48.633Z,1.40
2023-04-26T11:09:41.273Z,1.58
2023-04-26T11:12:14.835Z,1.05
2023-04-26T11:14:41.924Z,1.48
2023-04-26T11:17:09.378Z,1.73
2023-04-26T11:19:36.253Z,1.17
2023-04-26T11:22:06.424Z,1.17
2023-04-26T11:24:36.598Z,1.30
2023-04-26T11:27:09.535Z,1.08
2023-04-26T11:29:36.102Z,1.65
2023-04-26T11:32:03.489Z,1.27
2023-04-26T11:34:34.300Z,1.25
2023-04-26T11:37:04.789Z,1.25
2023-04-26T11:39:34.910Z,1.33
2023-04-26T11:42:12.549Z,1.70
2023-04-26T11:44:40.962Z,1.38
2023-04-26T11:47:08.207Z,1.10
2023-04-26T11:49:37.787Z,1.10
2023-04-26T11:52:05.998Z,1.30
2023-04-26T11:54:34.555Z,1.30
2023-04-26T11:57:02.860Z,1.33
2023-04-26T11:59:30.841Z,1.85
2023-04-26T12:01:58.363Z,1.00
2023-04-26T12:04:31.552Z,1.27
2023-04-26T12:06:58.477Z,1.63
2023-04-26T12:09:28.225Z,1.70
2023-04-26T12:12:10.604Z,1.42
2023-04-26T12:14:39.338Z,1.05
2023-04-26T12:17:07.469Z,1.75
2023-04-26T12:19:37.849Z,1.20
2023-04-26T12:22:08.408Z,1.35
2023-04-26T12:24:37.196Z,1.60
2023-04-26T12:27:06.598Z,1.65
2023-04-26T12:29:33.835Z,1.70
2023-04-26T12:32:01.420Z,1.65
2023-04-26T12:34:28.456Z,1.40
2023-04-26T12:36:55.824Z,1.60
2023-04-26T12:39:22.368Z,1.23
2023-04-26T12:41:49.257Z,1.50
2023-04-26T12:44:16.131Z,1.55
2023-04-26T12:46:42.825Z,1.50
2023-04-26T12:49:09.436Z,1.70
2023-04-26T12:51:35.910Z,1.80
2023-04-26T12:54:02.757Z,1.58
2023-04-26T12:56:30.041Z,1.60
2023-04-26T12:58:56.826Z,1.65
2023-04-26T13:01:23.420Z,1.30
2023-04-26T13:03:50.093Z,1.80
2023-04-26T13:06:16.998Z,1.63
2023-04-26T13:08:43.402Z,1.80
2023-04-26T13:11:09.834Z,1.77
2023-04-26T13:13:43.740Z,2.00
2023-04-26T13:16:11.747Z,2.88
2023-04-26T13:18:38.628Z,2.10
2023-04-26T13:21:05.225Z,2.15
2023-04-26T13:23:31.835Z,1.40
2023-04-26T13:25:58.253Z,2.05
2023-04-26T13:28:24.704Z,1.55
2023-04-26T13:30:52.352Z,1.70
2023-04-26T13:33:20.106Z,1.52
2023-04-26T13:35:48.808Z,1.50
2023-04-26T13:38:16.280Z,1.50
2023-04-26T13:40:43.214Z,1.50
2023-04-26T13:43:09.746Z,1.58
2023-04-26T13:45:36.749Z,1.50
2023-04-26T13:48:03.543Z,1.60
2023-04-26T13:50:30.194Z,1.70
2023-04-26T13:52:56.855Z,1.63
2023-04-26T13:55:23.534Z,1.40
2023-04-26T13:57:49.996Z,2.00
2023-04-26T14:00:16.979Z,1.70
2023-04-26T14:02:46.071Z,1.40
2023-04-26T14:05:12.992Z,1.50
2023-04-26T14:07:40.499Z,1.60
2023-04-26T14:10:07.685Z,1.80
2023-04-26T14:12:34.300Z,1.40
2023-04-26T14:15:04.089Z,1.73
2023-04-26T14:17:32.245Z,1.30
2023-04-26T14:19:58.698Z,1.80
2023-04-26T14:22:27.062Z,1.60
2023-04-26T14:24:53.559Z,1.40
2023-04-26T14:27:20.292Z,1.52
2023-04-26T14:29:46.808Z,1.35
2023-04-26T14:32:13.368Z,1.42
2023-04-26T14:34:39.990Z,1.42
2023-04-26T14:37:07.051Z,1.30
2023-04-26T14:39:33.592Z,1.90
2023-04-26T14:42:00.135Z,1.55
2023-04-26T14:44:28.036Z,1.73
2023-04-26T14:46:54.464Z,1.70
2023-04-26T14:49:21.043Z,1.60
2023-04-26T14:51:47.587Z,1.40
2023-04-26T14:54:15.228Z,1.33
2023-04-26T14:56:41.693Z,2.88
2023-04-26T14:59:08.134Z,1.45
2023-04-26T15:01:34.709Z,1.65
2023-04-26T15:04:01.744Z,1.58
2023-04-26T15:06:28.774Z,1.20
2023-04-26T15:08:55.273Z,1.42
2023-04-26T15:11:22.782Z,1.40
2023-04-26T15:13:49.188Z,1.67
2023-04-26T15:16:16.771Z,1.30
2023-04-26T15:18:43.191Z,1.60
2023-04-26T15:21:10.361Z,1.50
2023-04-26T15:23:36.852Z,1.58
2023-04-26T15:26:04.273Z,1.70
2023-04-26T15:28:31.038Z,1.40
2023-04-26T15:31:04.710Z,1.40
2023-04-26T15:33:31.696Z,1.55
2023-04-26T15:35:58.229Z,1.75
2023-04-26T15:38:24.658Z,1.50
2023-04-26T15:40:51.132Z,1.40
2023-04-26T15:43:17.869Z,1.60
2023-04-26T15:45:44.511Z,1.40
2023-04-26T15:48:12.038Z,1.60
2023-04-26T15:50:38.624Z,1.60
2023-04-26T15:53:05.124Z,1.30
2023-04-26T15:55:34.896Z,1.40
2023-04-26T15:58:01.552Z,1.33
2023-04-26T16:00:28.411Z,1.90
2023-04-26T16:02:55.058Z,1.38
2023-04-26T16:05:21.612Z,1.00
2023-04-26T16:07:48.083Z,1.08
2023-04-26T16:10:14.540Z,0.90
2023-04-26T16:12:42.154Z,1.40
2023-04-26T16:15:09.577Z,1.27
2023-04-26T16:17:36.842Z,1.15
2023-04-26T16:20:06.741Z,1.42
2023-04-26T16:22:33.721Z,1.48
2023-04-26T16:25:01.049Z,1.30
2023-04-26T16:27:27.683Z,1.40
2023-04-26T16:29:54.594Z,1.75
2023-04-26T16:32:21.281Z,1.30
2023-04-26T16:34:47.798Z,1.20
2023-04-26T16:37:14.699Z,1.40
2023-04-26T16:39:41.176Z,1.13
2023-04-26T16:42:07.687Z,1.17
2023-04-26T16:44:34.180Z,1.15
2023-04-26T16:47:01.597Z,1.10
2023-04-26T16:49:28.341Z,1.15
2023-04-26T16:51:58.740Z,1.27
2023-04-26T16:54:26.396Z,1.40
2023-04-26T16:56:53.031Z,1.15
2023-04-26T16:59:19.673Z,1.30
2023-04-26T17:01:47.192Z,1.27
2023-04-26T17:04:13.943Z,1.25
2023-04-26T17:06:40.492Z,1.25
2023-04-26T17:09:08.156Z,1.75
2023-04-26T17:11:37.263Z,1.20
2023-04-26T17:14:04.505Z,1.40
2023-04-26T17:16:31.206Z,1.63
2023-04-26T17:18:58.255Z,1.35
2023-04-26T17:21:24.799Z,1.50
2023-04-26T17:23:52.429Z,1.77
2023-04-26T17:26:19.105Z,1.90
2023-04-26T17:28:45.777Z,1.63
2023-04-26T17:31:12.271Z,2.13
2023-04-26T17:33:38.760Z,1.90
2023-04-26T17:36:06.177Z,2.50
2023-04-26T17:38:32.613Z,2.33
2023-04-26T17:40:59.561Z,1.77
2023-04-26T17:43:26.115Z,1.83
2023-04-26T17:45:52.756Z,2.22
2023-04-26T17:48:19.246Z,2.03
2023-04-26T17:50:45.801Z,1.40
2023-04-26T17:53:12.278Z,1.30
2023-04-26T17:55:38.731Z,2.60
2023-04-26T17:58:05.165Z,3.20
2023-04-26T18:00:31.768Z,3.38
2023-04-26T18:02:58.838Z,2.17
2023-04-26T18:05:25.609Z,1.98
2023-04-26T18:07:52.056Z,2.63
2023-04-26T18:10:18.717Z,3.10
2023-04-26T18:12:45.218Z,2.65
2023-04-26T18:15:13.552Z,1.90
2023-04-26T18:17:41.434Z,1.58
2023-04-26T18:20:08.478Z,1.60
2023-04-26T18:22:34.912Z,1.42
2023-04-26T18:25:01.364Z,1.67
2023-04-26T18:27:27.806Z,1.65
2023-04-26T18:29:54.188Z,1.60
2023-04-26T18:32:20.688Z,1.45
2023-04-26T18:34:47.947Z,2.58
2023-04-26T18:37:14.468Z,1.80
2023-04-26T18:39:40.962Z,2.15
2023-04-26T18:42:07.457Z,1.48
2023-04-26T18:44:33.920Z,1.42
2023-04-26T18:47:00.441Z,1.60
2023-04-26T18:49:27.279Z,1.90
2023-04-26T18:51:53.857Z,2.03
2023-04-26T18:54:20.294Z,1.60
2023-04-26T18:56:46.722Z,1.80
2023-04-26T18:59:13.275Z,1.50
2023-04-26T19:01:39.859Z,3.33
2023-04-26T19:04:06.591Z,3.90
2023-04-26T19:06:33.406Z,2.90
2023-04-26T19:09:00.825Z,2.25
2023-04-26T19:11:27.283Z,2.50
2023-04-26T19:13:53.803Z,2.70
2023-04-26T19:16:20.338Z,2.25
2023-04-26T19:18:47.284Z,2.10
2023-04-26T19:21:13.781Z,1.85
2023-04-26T19:23:40.191Z,1.80
2023-04-26T19:26:08.545Z,2.20
2023-04-26T19:28:35.749Z,1.90
2023-04-26T19:31:02.276Z,2.33
2023-04-26T19:33:29.336Z,2.15
2023-04-26T19:35:56.536Z,2.58
2023-04-26T19:38:24.185Z,3.65
2023-04-26T19:40:53.859Z,2.78
2023-04-26T19:43:20.397Z,2.20
2023-04-26T19:45:47.301Z,1.90
2023-04-26T19:48:13.820Z,2.50
2023-04-26T19:50:45.123Z,2.10
2023-04-26T19:53:13.504Z,1.98
2023-04-26T19:55:41.495Z,2.58
2023-04-26T19:58:08.601Z,2.20
2023-04-26T20:00:39.083Z,2.90
2023-04-26T20:03:06.452Z,2.58
2023-04-26T20:05:33.640Z,2.75
2023-04-26T20:08:00.511Z,2.08
2023-04-26T20:10:30.605Z,1.75
2023-04-26T20:12:57.275Z,2.10
2023-04-26T20:15:24.156Z,2.45
2023-04-26T20:17:50.686Z,2.10
2023-04-26T20:20:17.332Z,2.03
2023-04-26T20:22:43.757Z,2.05
2023-04-26T20:25:10.655Z,2.22
2023-04-26T20:27:37.160Z,2.83
2023-04-26T20:30:03.984Z,2.00
2023-04-26T20:32:30.466Z,2.20
2023-04-26T20:34:56.920Z,2.45
2023-04-26T20:37:23.443Z,2.00
2023-04-26T20:39:50.045Z,2.35
2023-04-26T20:42:16.941Z,2.00
2023-04-26T20:44:43.526Z,2.33
2023-04-26T20:47:09.975Z,2.40
2023-04-26T20:49:36.541Z,2.50
2023-04-26T20:52:03.243Z,2.35
2023-04-26T20:54:29.677Z,2.50
2023-04-26T20:56:56.087Z,2.47
2023-04-26T20:59:24.933Z,2.08
2023-04-26T21:01:53.653Z,2.28
2023-04-26T21:04:20.862Z,2.35
2023-04-26T21:06:47.527Z,3.03
2023-04-26T21:09:13.918Z,2.78
2023-04-26T21:11:40.587Z,2.22
2023-04-26T21:14:07.177Z,2.70
2023-04-26T21:16:33.673Z,2.42
2023-04-26T21:19:00.111Z,2.28
2023-04-26T21:21:28.287Z,2.60
2023-04-26T21:23:55.034Z,2.50
2023-04-26T21:26:21.490Z,2.20
2023-04-26T21:28:48.706Z,2.67
2023-04-26T21:31:15.625Z,2.10
2023-04-26T21:33:42.163Z,2.00
2023-04-26T21:36:09.013Z,2.60
2023-04-26T21:38:35.575Z,2.97
2023-04-26T21:41:02.024Z,2.80
2023-04-26T21:43:28.465Z,2.38
2023-04-26T21:45:58.580Z,2.50
2023-04-26T21:48:26.315Z,2.55
2023-04-26T21:50:53.039Z,3.50
2023-04-26T21:53:19.471Z,2.88
2023-04-26T21:55:53.482Z,2.40
2023-04-26T21:58:20.988Z,2.40
2023-04-26T22:00:47.646Z,2.50
2023-04-26T22:03:14.748Z,2.60
2023-04-26T22:05:41.868Z,2.70
2023-04-26T22:08:08.486Z,2.38
2023-04-26T22:10:35.027Z,2.75
2023-04-26T22:13:01.485Z,2.00
2023-04-26T22:15:28.522Z,2.70
2023-04-26T22:17:55.006Z,2.60
2023-04-26T22:20:21.666Z,1.90
2023-04-26T22:22:48.374Z,2.30
2023-04-26T22:25:14.789Z,2.20
2023-04-26T22:27:41.206Z,2.40
2023-04-26T22:30:22.947Z,2.40
2023-04-26T22:32:55.541Z,2.85
2023-04-26T22:35:23.267Z,2.00
2023-04-26T22:37:49.911Z,2.30
2023-04-26T22:40:16.806Z,2.25
2023-04-26T22:42:44.169Z,3.97
2023-04-26T22:45:12.105Z,2.10
2023-04-26T22:47:39.562Z,1.55
2023-04-26T22:50:07.400Z,2.42
2023-04-26T22:52:34.124Z,2.20
2023-04-26T22:55:00.806Z,2.20
2023-04-26T22:57:28.509Z,2.00
2023-04-26T22:59:54.963Z,2.15
2023-04-26T23:02:21.613Z,2.28
2023-04-26T23:04:48.121Z,2.00
2023-04-26T23:07:14.610Z,2.00
2023-04-26T23:09:41.139Z,1.88
2023-04-26T23:12:07.741Z,2.08
2023-04-26T23:14:34.937Z,2.20
2023-04-26T23:17:01.484Z,1.83
2023-04-26T23:19:28.100Z,2.05
2023-04-26T23:21:54.559Z,2.10
2023-04-26T23:24:21.263Z,2.20
2023-04-26T23:26:47.676Z,2.38
2023-04-26T23:29:14.326Z,1.98
2023-04-26T23:31:41.153Z,1.92
2023-04-26T23:34:07.611Z,2.22
2023-04-26T23:36:34.233Z,2.20
2023-04-26T23:39:00.697Z,2.30
2023-04-26T23:41:27.139Z,1.90
2023-04-26T23:43:53.749Z,2.13
2023-04-26T23:46:20.193Z,1.98
2023-04-26T23:48:46.631Z,2.50
2023-04-26T23:51:13.083Z,2.33
2023-04-26T23:53:39.664Z,2.10
2023-04-26T23:56:07.175Z,2.05
2023-04-26T23:58:33.632Z,2.20
